Caldwell, Idaho
Current Conditions -  °F | °C
As of 2:35 AM on Monday 20 Oct 2014 (Local Time) from KEUL Reporting Station
Clear Clear  
Wind Chill: 41°   Ceiling: Unl
Heat Index: 45°   Visibility: 10mi
Dew Point: 30°   Wind: 6mph
Humidity: 57%   Direction: 80°E
Pressure: 29.87"   Gusts: NA
Location:  43.67°N, 116.69°W
Report Text: KEUL 200835Z AUTO 08005KT 10SM CLR 07/M01 A2987 RMK AO1
Loading
Personal Weather Stations






























Interactive Weather Map
Tropical Storm Tracking
New forecast layout! Learn more

10-Day Weather Forecast

Advertisements
Track Severe Weather on mobile